Time;durP1;ratioP1;P1;durP2;ratioP2;P2;SDS_P1;SDS_P2;PMS_P1;PMS_P2;Temp;Humidity;BMP_temperature;BMP_pressure;BME280_temperature;BME280_humidity;BME280_pressure;Samples;Min_cycle;Max_cycle;Signal;HPM_P1;HPM_P2
2021/08/17 00:02:26;;;;;;;4.63;1.20;;;;;;;;;;5020611;28;20065;-53
2021/08/17 00:04:53;;;;;;;;;;;;;;;;;;5000401;28;20055;-54
2021/08/17 00:07:19;;;;;;;12.05;1.52;;;;;;;;;;4999714;28;19944;-52
2021/08/17 00:09:47;;;;;;;9.50;1.42;;;;;;;;;;4997091;28;20034;-55
2021/08/17 00:12:15;;;;;;;5.83;1.30;;;;;;;;;;4994454;28;20053;-52
2021/08/17 00:14:41;;;;;;;8.38;1.40;;;;;;;;;;4998757;28;20042;-55
2021/08/17 00:17:09;;;;;;;9.25;1.80;;;;;;;;;;4997358;28;20147;-54
2021/08/17 00:19:38;;;;;;;8.25;1.42;;;;;;;;;;5002874;28;20057;-53
2021/08/17 00:22:06;;;;;;;8.15;1.60;;;;;;;;;;4993020;28;20058;-55
2021/08/17 00:24:33;;;;;;;7.25;1.92;;;;;;;;;;4999355;28;20034;-53
2021/08/17 00:27:01;;;;;;;6.57;1.55;;;;;;;;;;4991020;28;20120;-55
2021/08/17 00:29:28;;;;;;;11.10;1.70;;;;;;;;;;4997197;28;20038;-54
2021/08/17 00:31:57;;;;;;;12.93;1.75;;;;;;;;;;4993374;28;20054;-55
2021/08/17 00:34:23;;;;;;;13.18;1.95;;;;;;;;;;5000177;28;20039;-53
2021/08/17 00:36:49;;;;;;;9.98;2.17;;;;;;;;;;4997664;28;20038;-54
2021/08/17 00:39:16;;;;;;;10.55;1.88;;;;;;;;;;5001046;28;20050;-52
2021/08/17 00:41:52;;;;;;;8.98;1.65;;;;;;;;;;4993748;28;20034;-50
2021/08/17 00:44:20;;;;;;;7.70;1.60;;;;;;;;;;4998277;28;20049;-53
2021/08/17 00:46:47;;;;;;;6.32;1.42;;;;;;;;;;4999558;28;20066;-54
2021/08/17 00:49:13;;;;;;;9.57;1.70;;;;;;;;;;5001246;28;20026;-52
2021/08/17 00:51:40;;;;;;;8.52;1.60;;;;;;;;;;4995835;28;20034;-54
2021/08/17 00:54:06;;;;;;;7.53;1.75;;;;;;;;;;4996798;28;20027;-52
2021/08/17 00:56:33;;;;;;;6.10;1.45;;;;;;;;;;5001237;28;20149;-54
2021/08/17 00:58:59;;;;;;;7.32;1.60;;;;;;;;;;5001847;28;20058;-52
2021/08/17 01:01:27;;;;;;;10.88;1.55;;;;;;;;;;4997419;28;20045;-54
2021/08/17 01:03:54;;;;;;;9.33;1.40;;;;;;;;;;4995747;28;20465;-55
2021/08/17 01:06:20;;;;;;;9.50;1.70;;;;;;;;;;5004053;28;20298;-53
2021/08/17 01:08:46;;;;;;;9.77;1.85;;;;;;;;;;4999502;28;20061;-52
2021/08/17 01:11:20;;;;;;;6.22;1.60;;;;;;;;;;5004138;28;20038;-54
2021/08/17 01:13:47;;;;;;;10.23;1.75;;;;;;;;;;5015508;28;20072;-52
2021/08/17 01:16:13;;;;;;;8.45;1.67;;;;;;;;;;5001820;28;20038;-53
2021/08/17 01:18:41;;;;;;;7.68;1.40;;;;;;;;;;5001213;28;20040;-54
2021/08/17 01:21:21;;;;;;;8.07;1.93;;;;;;;;;;5006983;28;20045;-55
2021/08/17 01:23:47;;;;;;;9.65;1.83;;;;;;;;;;5006895;28;20053;-55
2021/08/17 01:26:15;;;;;;;11.18;1.95;;;;;;;;;;5004362;28;20061;-52
2021/08/17 01:28:41;;;;;;;10.13;1.58;;;;;;;;;;5003462;28;20045;-54
2021/08/17 01:31:09;;;;;;;8.15;1.95;;;;;;;;;;5009896;28;20033;-54
2021/08/17 01:33:35;;;;;;;12.10;2.53;;;;;;;;;;5002947;28;20056;-51
2021/08/17 01:36:02;;;;;;;7.75;1.77;;;;;;;;;;5010499;28;20135;-53
2021/08/17 01:38:29;;;;;;;9.15;1.85;;;;;;;;;;5007170;28;20034;-54
2021/08/17 01:40:56;;;;;;;10.50;1.60;;;;;;;;;;5009533;28;20049;-54
2021/08/17 01:43:24;;;;;;;13.30;2.00;;;;;;;;;;5007683;28;20037;-55
2021/08/17 01:45:57;;;;;;;8.50;2.07;;;;;;;;;;5004657;28;20059;-55
2021/08/17 01:48:26;;;;;;;10.68;1.80;;;;;;;;;;5007413;28;20161;-54
2021/08/17 01:51:33;;;;;;;19.25;1.92;;;;;;;;;;5007082;28;20062;-52
2021/08/17 01:53:59;;;;;;;8.95;1.90;;;;;;;;;;5008672;28;20066;-51
2021/08/17 01:56:26;;;;;;;9.88;1.73;;;;;;;;;;5002366;28;20098;-52
2021/08/17 01:58:53;;;;;;;8.85;1.90;;;;;;;;;;5010993;28;20046;-54
2021/08/17 02:01:27;;;;;;;9.60;2.07;;;;;;;;;;5006943;28;20065;-53
2021/08/17 02:03:53;;;;;;;7.85;1.90;;;;;;;;;;5013700;28;20299;-54
2021/08/17 02:06:19;;;;;;;11.25;1.92;;;;;;;;;;4993580;28;20046;-54
2021/08/17 02:08:46;;;;;;;6.13;1.50;;;;;;;;;;4993892;28;20073;-53
2021/08/17 02:11:13;;;;;;;4.55;1.80;;;;;;;;;;4989596;28;20038;-55
2021/08/17 02:13:39;;;;;;;10.98;1.55;;;;;;;;;;4994509;28;20034;-54
2021/08/17 02:16:07;;;;;;;9.07;1.92;;;;;;;;;;4991210;28;20050;-55
2021/08/17 02:18:35;;;;;;;7.27;1.77;;;;;;;;;;4994248;28;20042;-53
2021/08/17 02:21:14;;;;;;;6.57;1.90;;;;;;;;;;4991028;28;20061;-53
2021/08/17 02:23:40;;;;;;;;;;;;;;;;;;4994695;28;20272;-54
2021/08/17 02:26:06;;;;;;;12.65;2.20;;;;;;;;;;4989378;28;19929;-55
2021/08/17 02:28:33;;;;;;;7.38;1.88;;;;;;;;;;4993872;28;20034;-49
2021/08/17 02:31:00;;;;;;;7.70;1.83;;;;;;;;;;4995685;28;20053;-53
2021/08/17 02:33:28;;;;;;;6.03;2.08;;;;;;;;;;5008615;28;20034;-53
2021/08/17 02:35:54;;;;;;;10.57;2.08;;;;;;;;;;5004216;28;20038;-54
2021/08/17 02:38:21;;;;;;;10.43;1.98;;;;;;;;;;4990831;28;20042;-55
2021/08/17 02:41:00;;;;;;;7.68;2.00;;;;;;;;;;4989884;28;20038;-52
2021/08/17 02:43:26;;;;;;;6.95;1.83;;;;;;;;;;4990924;28;20046;-53
2021/08/17 02:45:55;;;;;;;12.32;1.90;;;;;;;;;;4989897;28;20030;-53
2021/08/17 02:48:22;;;;;;;5.25;1.80;;;;;;;;;;5001519;28;20038;-52
2021/08/17 02:50:52;;;;;;;8.02;1.70;;;;;;;;;;5004885;28;20058;-54
2021/08/17 02:53:18;;;;;;;7.03;2.10;;;;;;;;;;4986184;28;20046;-54
2021/08/17 02:55:45;;;;;;;7.93;1.73;;;;;;;;;;4988577;28;20045;-49
2021/08/17 02:58:12;;;;;;;5.63;1.67;;;;;;;;;;4985636;28;20050;-55
2021/08/17 03:00:39;;;;;;;6.57;1.80;;;;;;;;;;4987848;28;20049;-52
2021/08/17 03:03:06;;;;;;;9.60;1.97;;;;;;;;;;4982046;28;20046;-55
2021/08/17 03:05:32;;;;;;;5.75;1.83;;;;;;;;;;4987709;28;20094;-54
2021/08/17 03:08:03;;;;;;;11.85;2.22;;;;;;;;;;4985632;28;20053;-55
2021/08/17 03:10:30;;;;;;;10.88;2.00;;;;;;;;;;4988583;28;20053;-55
2021/08/17 03:12:57;;;;;;;9.80;1.80;;;;;;;;;;4986958;28;20042;-55
2021/08/17 03:15:24;;;;;;;5.43;1.73;;;;;;;;;;4990695;28;20038;-54
2021/08/17 03:17:50;;;;;;;7.22;1.90;;;;;;;;;;4987747;28;20120;-55
2021/08/17 03:20:18;;;;;;;8.13;1.85;;;;;;;;;;5007279;28;20603;-54
2021/08/17 03:22:47;;;;;;;8.87;1.83;;;;;;;;;;5004527;28;20050;-52
2021/08/17 03:25:15;;;;;;;7.22;1.92;;;;;;;;;;5010246;28;20064;-54
2021/08/17 03:27:42;;;;;;;9.00;1.85;;;;;;;;;;5010520;28;20061;-52
2021/08/17 03:30:09;;;;;;;6.60;1.90;;;;;;;;;;4989254;28;20049;-53
2021/08/17 03:32:48;;;;;;;4.87;1.90;;;;;;;;;;4990305;28;20034;-54
2021/08/17 03:35:16;;;;;;;6.90;2.00;;;;;;;;;;4990981;28;20047;-53
2021/08/17 03:37:42;;;;;;;8.57;2.10;;;;;;;;;;5007540;28;20046;-54
2021/08/17 03:40:10;;;;;;;14.18;2.10;;;;;;;;;;4998450;28;20058;-52
2021/08/17 03:42:43;;;;;;;5.82;1.90;;;;;;;;;;5006628;28;20034;-54
2021/08/17 03:45:12;;;;;;;9.15;2.30;;;;;;;;;;4990680;28;20049;-52
2021/08/17 03:47:38;;;;;;;6.50;1.95;;;;;;;;;;4988383;28;20034;-54
2021/08/17 03:50:05;;;;;;;6.13;1.80;;;;;;;;;;4995839;28;20172;-54
2021/08/17 03:52:39;;;;;;;6.60;1.85;;;;;;;;;;5007892;28;20038;-54
2021/08/17 03:55:06;;;;;;;7.05;2.03;;;;;;;;;;4994960;28;20112;-52
2021/08/17 03:57:32;;;;;;;6.97;1.98;;;;;;;;;;4989434;28;20045;-51
2021/08/17 03:59:59;;;;;;;9.43;2.15;;;;;;;;;;4992595;28;20042;-49
2021/08/17 04:02:34;;;;;;;10.02;2.10;;;;;;;;;;4995775;28;20128;-52
2021/08/17 04:05:00;;;;;;;12.15;2.22;;;;;;;;;;4989043;28;20034;-52
2021/08/17 04:07:27;;;;;;;7.63;1.90;;;;;;;;;;5006626;28;20042;-52
2021/08/17 04:09:57;;;;;;;9.38;2.40;;;;;;;;;;4996926;28;20055;-53
2021/08/17 04:12:24;;;;;;;9.98;2.33;;;;;;;;;;4985749;28;20125;-52
2021/08/17 04:14:51;;;;;;;7.43;2.20;;;;;;;;;;4983301;28;20066;-52
2021/08/17 04:17:17;;;;;;;11.23;2.17;;;;;;;;;;4986799;28;20062;-53
2021/08/17 04:19:45;;;;;;;6.75;2.70;;;;;;;;;;4984296;28;20051;-52
2021/08/17 04:22:30;;;;;;;8.48;2.13;;;;;;;;;;5003638;28;20042;-53
2021/08/17 04:24:57;;;;;;;12.00;2.80;;;;;;;;;;5003614;28;20090;-53
2021/08/17 04:27:23;;;;;;;7.35;2.25;;;;;;;;;;4983279;28;20059;-54
2021/08/17 04:29:50;;;;;;;6.18;2.30;;;;;;;;;;4985834;28;20039;-51
2021/08/17 04:32:19;;;;;;;8.13;2.25;;;;;;;;;;4981776;28;20053;-53
2021/08/17 04:34:46;;;;;;;10.35;2.33;;;;;;;;;;4985678;28;20043;-53
2021/08/17 04:37:13;;;;;;;9.97;2.37;;;;;;;;;;4995298;28;20041;-52
2021/08/17 04:39:40;;;;;;;10.02;2.70;;;;;;;;;;5002983;28;20272;-54
2021/08/17 04:42:14;;;;;;;9.25;2.17;;;;;;;;;;4998797;28;20038;-55
2021/08/17 04:44:41;;;;;;;9.82;2.28;;;;;;;;;;5004631;28;20030;-55
2021/08/17 04:47:07;;;;;;;7.07;2.72;;;;;;;;;;5000741;28;20054;-55
2021/08/17 04:49:34;;;;;;;6.72;2.63;;;;;;;;;;5004089;28;20169;-55
2021/08/17 04:52:02;;;;;;;15.90;3.10;;;;;;;;;;5001397;28;20057;-54
2021/08/17 04:54:28;;;;;;;8.60;3.10;;;;;;;;;;4998414;28;20034;-53
2021/08/17 04:56:55;;;;;;;14.35;3.20;;;;;;;;;;4982785;28;20083;-51
2021/08/17 04:59:21;;;;;;;9.15;3.08;;;;;;;;;;4986364;28;20038;-52
2021/08/17 05:01:54;;;;;;;14.05;3.33;;;;;;;;;;4982152;28;20038;-54
2021/08/17 05:04:21;;;;;;;9.73;2.65;;;;;;;;;;4987490;28;20492;-52
2021/08/17 05:06:47;;;;;;;9.20;2.95;;;;;;;;;;4985195;28;20170;-54
2021/08/17 05:09:15;;;;;;;11.52;3.35;;;;;;;;;;4986493;28;20045;-53
2021/08/17 05:11:46;;;;;;;10.85;3.38;;;;;;;;;;4988514;28;20124;-52
2021/08/17 05:14:12;;;;;;;9.15;2.88;;;;;;;;;;4968972;28;20034;-51
2021/08/17 05:16:39;;;;;;;11.63;3.47;;;;;;;;;;4969994;28;20066;-54
2021/08/17 05:19:05;;;;;;;17.05;4.50;;;;;;;;;;4981487;28;20058;-53
2021/08/17 05:21:50;;;;;;;12.38;4.32;;;;;;;;;;4987787;28;20059;-54
2021/08/17 05:24:18;;;;;;;24.42;7.45;;;;;;;;;;4967531;28;20042;-54
2021/08/17 05:26:47;;;;;;;16.88;7.00;;;;;;;;;;4969562;28;20046;-52
2021/08/17 05:29:13;;;;;;;16.10;6.22;;;;;;;;;;4973430;28;20035;-50
2021/08/17 05:31:41;;;;;;;17.52;5.72;;;;;;;;;;4984891;28;20034;-54
2021/08/17 05:34:08;;;;;;;19.30;6.10;;;;;;;;;;4997670;28;20039;-52
2021/08/17 05:36:34;;;;;;;17.65;6.15;;;;;;;;;;4985602;28;20046;-53
2021/08/17 05:39:01;;;;;;;20.02;6.53;;;;;;;;;;4980921;28;20116;-52
2021/08/17 05:41:30;;;;;;;18.20;7.05;;;;;;;;;;4999077;28;20045;-54
2021/08/17 05:43:56;;;;;;;29.52;7.68;;;;;;;;;;4981317;28;20037;-52
2021/08/17 05:46:22;;;;;;;27.35;8.30;;;;;;;;;;4984327;28;20042;-52
2021/08/17 05:48:49;;;;;;;26.77;7.63;;;;;;;;;;4992209;28;20046;-52
2021/08/17 05:51:16;;;;;;;27.25;8.27;;;;;;;;;;4999983;28;20034;-49
2021/08/17 05:53:49;;;;;;;26.83;7.63;;;;;;;;;;4995369;28;20512;-52
2021/08/17 05:56:18;;;;;;;22.98;8.05;;;;;;;;;;4982672;28;20053;-52
2021/08/17 05:58:46;;;;;;;30.92;8.73;;;;;;;;;;4982575;28;20080;-53
2021/08/17 06:01:29;;;;;;;28.67;8.73;;;;;;;;;;4987814;28;20034;-54
2021/08/17 06:03:57;;;;;;;30.13;8.88;;;;;;;;;;4982508;28;20041;-54
2021/08/17 06:06:23;;;;;;;25.10;8.73;;;;;;;;;;4966762;28;20076;-52
2021/08/17 06:08:51;;;;;;;34.00;9.95;;;;;;;;;;4972796;28;20041;-55
2021/08/17 06:11:26;;;;;;;23.95;8.85;;;;;;;;;;5001001;28;20049;-54
2021/08/17 06:13:54;;;;;;;24.05;8.77;;;;;;;;;;4985533;28;20088;-53
2021/08/17 06:16:20;;;;;;;24.30;9.30;;;;;;;;;;5001281;28;20105;-54
2021/08/17 06:18:47;;;;;;;25.17;8.90;;;;;;;;;;4989495;28;20283;-56
2021/08/17 06:21:31;;;;;;;24.55;8.98;;;;;;;;;;4985840;28;20050;-52
2021/08/17 06:23:57;;;;;;;33.90;12.13;;;;;;;;;;4990149;28;20097;-53
2021/08/17 06:26:24;;;;;;;28.67;11.48;;;;;;;;;;4973534;28;20035;-54
2021/08/17 06:28:50;;;;;;;32.65;10.27;;;;;;;;;;4971914;28;20043;-54
2021/08/17 06:31:23;;;;;;;29.02;8.68;;;;;;;;;;4980527;28;20066;-53
2021/08/17 06:33:50;;;;;;;33.72;9.55;;;;;;;;;;4990828;28;20038;-50
2021/08/17 06:36:16;;;;;;;35.28;10.88;;;;;;;;;;4977033;28;20061;-55
2021/08/17 06:38:43;;;;;;;25.75;9.40;;;;;;;;;;4971837;28;20049;-54
2021/08/17 06:41:15;;;;;;;29.00;9.43;;;;;;;;;;4967167;28;20038;-53
2021/08/17 06:43:42;;;;;;;31.65;9.73;;;;;;;;;;4971915;28;20031;-53
2021/08/17 06:46:08;;;;;;;29.02;10.00;;;;;;;;;;4968132;28;20454;-54
2021/08/17 06:48:36;;;;;;;33.88;10.48;;;;;;;;;;4988855;28;20544;-51
2021/08/17 06:51:10;;;;;;;28.87;8.67;;;;;;;;;;4967477;28;20050;-51
2021/08/17 06:53:37;;;;;;;40.05;11.23;;;;;;;;;;4969856;28;20277;-55
2021/08/17 06:56:03;;;;;;;35.90;10.48;;;;;;;;;;4984645;28;20050;-54
2021/08/17 06:58:30;;;;;;;24.52;8.35;;;;;;;;;;4988256;28;20038;-52
2021/08/17 07:01:03;;;;;;;29.50;9.82;;;;;;;;;;4970886;28;20043;-51
2021/08/17 07:03:30;;;;;;;34.15;10.68;;;;;;;;;;4989355;28;20050;-51
2021/08/17 07:05:58;;;;;;;29.67;10.00;;;;;;;;;;5012466;28;20038;-54
2021/08/17 07:08:24;;;;;;;31.48;10.77;;;;;;;;;;4988200;28;20050;-53
2021/08/17 07:11:01;;;;;;;35.15;10.05;;;;;;;;;;4985551;28;20055;-53
2021/08/17 07:13:28;;;;;;;29.80;9.73;;;;;;;;;;4970236;28;20047;-54
2021/08/17 07:15:55;;;;;;;30.55;9.45;;;;;;;;;;4970657;28;20051;-50
2021/08/17 07:18:21;;;;;;;32.25;9.15;;;;;;;;;;4980580;28;20050;-51
2021/08/17 07:21:01;;;;;;;30.90;9.65;;;;;;;;;;5006892;28;20462;-52
2021/08/17 07:23:29;;;;;;;38.97;9.70;;;;;;;;;;4984350;28;20102;-53
2021/08/17 07:25:56;;;;;;;39.83;10.60;;;;;;;;;;4989399;28;20045;-54
2021/08/17 07:28:22;;;;;;;31.70;9.48;;;;;;;;;;4985704;28;20038;-53
2021/08/17 07:30:58;;;;;;;32.28;9.48;;;;;;;;;;4970515;28;20133;-51
2021/08/17 07:33:25;;;;;;;31.70;8.63;;;;;;;;;;4966642;28;20125;-53
2021/08/17 07:35:51;;;;;;;30.80;9.02;;;;;;;;;;4971382;28;20113;-54
2021/08/17 07:38:19;;;;;;;30.45;9.45;;;;;;;;;;4967937;28;20050;-53
2021/08/17 07:40:47;;;;;;;21.70;6.93;;;;;;;;;;4970792;28;20053;-54
2021/08/17 07:43:15;;;;;;;26.75;8.00;;;;;;;;;;4971351;28;20283;-53
2021/08/17 07:45:41;;;;;;;28.67;8.90;;;;;;;;;;4988392;28;20530;-55
2021/08/17 07:48:08;;;;;;;24.40;7.55;;;;;;;;;;4983360;28;20058;-53
2021/08/17 07:50:38;;;;;;;23.60;6.95;;;;;;;;;;4987090;28;20045;-53
2021/08/17 07:53:05;;;;;;;28.50;8.45;;;;;;;;;;5001945;28;20476;-55
2021/08/17 07:55:33;;;;;;;29.73;7.00;;;;;;;;;;4967876;28;20133;-53
2021/08/17 07:58:00;;;;;;;28.30;8.35;;;;;;;;;;4969059;28;20046;-52
2021/08/17 08:00:31;;;;;;;21.25;7.00;;;;;;;;;;4965575;28;20030;-53
2021/08/17 08:03:00;;;;;;;29.48;7.80;;;;;;;;;;4969102;28;20039;-53
2021/08/17 08:05:27;;;;;;;24.55;7.30;;;;;;;;;;4981654;28;20039;-53
2021/08/17 08:07:53;;;;;;;26.17;8.23;;;;;;;;;;4990225;28;20054;-53
2021/08/17 08:10:20;;;;;;;25.00;7.15;;;;;;;;;;4984294;28;20034;-53
2021/08/17 08:12:48;;;;;;;28.10;7.32;;;;;;;;;;4989665;28;20116;-54
2021/08/17 08:15:14;;;;;;;20.73;5.78;;;;;;;;;;4985164;28;20157;-56
2021/08/17 08:17:41;;;;;;;16.80;5.88;;;;;;;;;;4990153;28;20058;-54
2021/08/17 08:20:08;;;;;;;21.42;5.88;;;;;;;;;;4977070;28;20031;-55
2021/08/17 08:22:38;;;;;;;24.88;6.47;;;;;;;;;;4968502;28;20055;-56
2021/08/17 08:25:06;;;;;;;21.20;6.30;;;;;;;;;;4967045;28;20056;-54
2021/08/17 08:27:33;;;;;;;17.77;5.70;;;;;;;;;;4969483;28;20071;-54
2021/08/17 08:30:01;;;;;;;18.90;5.82;;;;;;;;;;4966890;28;20050;-54
2021/08/17 08:32:58;;;;;;;21.13;5.80;;;;;;;;;;4969342;28;20027;-53
2021/08/17 08:35:25;;;;;;;17.93;5.33;;;;;;;;;;4968285;28;20347;-54
2021/08/17 08:37:51;;;;;;;23.25;6.55;;;;;;;;;;4974027;28;20058;-53
2021/08/17 08:40:18;;;;;;;20.92;6.85;;;;;;;;;;4969831;28;20026;-53
2021/08/17 08:42:45;;;;;;;20.25;6.35;;;;;;;;;;4969268;28;20035;-54
2021/08/17 08:45:13;;;;;;;23.70;6.88;;;;;;;;;;4984243;28;20039;-53
2021/08/17 08:47:40;;;;;;;17.23;5.95;;;;;;;;;;5005946;28;20042;-53
2021/08/17 08:50:07;;;;;;;19.88;5.85;;;;;;;;;;4987565;28;20065;-55
2021/08/17 08:52:33;;;;;;;15.88;5.50;;;;;;;;;;4984705;28;20042;-56
2021/08/17 08:55:02;;;;;;;21.75;6.18;;;;;;;;;;4978544;28;20038;-53
2021/08/17 08:57:28;;;;;;;21.92;6.68;;;;;;;;;;4999175;28;20053;-54
2021/08/17 08:59:55;;;;;;;25.20;6.82;;;;;;;;;;5005668;28;20082;-53
2021/08/17 09:02:29;;;;;;;21.38;6.90;;;;;;;;;;4982975;28;20042;-54
2021/08/17 09:04:57;;;;;;;22.35;5.50;;;;;;;;;;5005955;28;20042;-54
2021/08/17 09:07:37;;;;;;;19.73;6.28;;;;;;;;;;4984418;28;20045;-53
2021/08/17 09:10:12;;;;;;;22.17;6.65;;;;;;;;;;4989618;28;20074;-53
2021/08/17 09:12:43;;;;;;;16.98;6.38;;;;;;;;;;4984092;28;20042;-54
2021/08/17 09:15:11;;;;;;;20.20;6.68;;;;;;;;;;4985732;28;20038;-55
2021/08/17 09:17:40;;;;;;;17.08;6.35;;;;;;;;;;4983052;28;20026;-54
2021/08/17 09:20:07;;;;;;;19.13;5.80;;;;;;;;;;4987022;28;20057;-54
2021/08/17 09:22:46;;;;;;;29.67;8.55;;;;;;;;;;4981996;28;20038;-54
2021/08/17 09:25:12;;;;;;;22.08;6.85;;;;;;;;;;4969659;28;20055;-55
2021/08/17 09:27:39;;;;;;;16.98;6.05;;;;;;;;;;4973525;28;20097;-54
2021/08/17 09:30:08;;;;;;;18.67;6.13;;;;;;;;;;4988584;28;20050;-54
2021/08/17 09:32:51;;;;;;;22.48;6.60;;;;;;;;;;4979601;28;20034;-53
2021/08/17 09:35:18;;;;;;;20.00;7.03;;;;;;;;;;4967970;28;20027;-55
2021/08/17 09:37:44;;;;;;;19.75;6.05;;;;;;;;;;4966595;28;20031;-56
2021/08/17 09:40:13;;;;;;;19.60;6.18;;;;;;;;;;4968657;28;20058;-56
2021/08/17 09:42:42;;;;;;;15.35;5.75;;;;;;;;;;4968426;28;20034;-56
2021/08/17 09:45:14;;;;;;;17.80;5.78;;;;;;;;;;4972341;28;20046;-55
2021/08/17 09:47:42;;;;;;;17.40;4.97;;;;;;;;;;4986368;28;20499;-55
2021/08/17 09:50:33;;;;;;;20.45;5.78;;;;;;;;;;4990967;28;20116;-54
2021/08/17 09:53:12;;;;;;;23.08;5.90;;;;;;;;;;4968087;28;20054;-55
2021/08/17 09:55:42;;;;;;;14.32;4.95;;;;;;;;;;4974381;28;20050;-53
2021/08/17 09:58:18;;;;;;;16.15;5.20;;;;;;;;;;4986794;28;20050;-55
2021/08/17 10:00:46;;;;;;;15.95;4.82;;;;;;;;;;4990754;28;20226;-55
2021/08/17 10:03:15;;;;;;;15.30;5.33;;;;;;;;;;4987886;28;20050;-54
2021/08/17 10:05:41;;;;;;;15.50;4.72;;;;;;;;;;4990402;28;20054;-55
2021/08/17 10:08:09;;;;;;;16.98;4.80;;;;;;;;;;4990304;28;20046;-55
2021/08/17 10:10:39;;;;;;;12.88;4.85;;;;;;;;;;4987916;28;20066;-53
2021/08/17 10:13:05;;;;;;;13.63;4.80;;;;;;;;;;4992073;28;20030;-53
2021/08/17 10:15:32;;;;;;;14.40;4.20;;;;;;;;;;4987007;28;20042;-55
2021/08/17 10:17:59;;;;;;;14.80;4.72;;;;;;;;;;4989830;28;20030;-55
2021/08/17 10:20:32;;;;;;;11.07;3.90;;;;;;;;;;4970820;28;20038;-54
2021/08/17 10:23:01;;;;;;;14.50;3.90;;;;;;;;;;4987328;28;20069;-52
2021/08/17 10:25:27;;;;;;;;;;;;;;;;;;4969323;28;20038;-56
2021/08/17 10:27:55;;;;;;;8.75;2.88;;;;;;;;;;4987593;28;19918;-55
2021/08/17 10:30:22;;;;;;;6.65;2.80;;;;;;;;;;4966916;28;20047;-55
2021/08/17 10:32:54;;;;;;;9.38;2.80;;;;;;;;;;4971429;28;20238;-56
2021/08/17 10:35:55;;;;;;;8.75;3.40;;;;;;;;;;4974744;28;20045;-53
2021/08/17 10:38:42;;;;;;;11.43;2.78;;;;;;;;;;5007334;28;20045;-54
2021/08/17 10:41:12;;;;;;;13.93;3.03;;;;;;;;;;4974117;28;20042;-55
2021/08/17 10:44:12;;;;;;;9.10;3.10;;;;;;;;;;4969487;28;20027;-54
2021/08/17 10:46:42;;;;;;;13.48;2.80;;;;;;;;;;4966921;28;20106;-56
2021/08/17 10:49:23;;;;;;;15.20;4.22;;;;;;;;;;4970965;28;20043;-57
2021/08/17 10:52:00;;;;;;;9.32;3.40;;;;;;;;;;4964679;28;20034;-54
2021/08/17 10:54:27;;;;;;;12.57;3.30;;;;;;;;;;4974779;28;20108;-54
2021/08/17 10:56:53;;;;;;;12.88;3.00;;;;;;;;;;4984908;28;20045;-54
2021/08/17 10:59:39;;;;;;;8.20;3.25;;;;;;;;;;4989560;28;20038;-52
2021/08/17 11:02:07;;;;;;;10.52;3.42;;;;;;;;;;4972246;28;20061;-55
2021/08/17 11:04:37;;;;;;;17.45;4.07;;;;;;;;;;4973225;28;20042;-55
2021/08/17 11:07:22;;;;;;;14.35;3.50;;;;;;;;;;4995910;28;20046;-55
2021/08/17 11:09:48;;;;;;;9.05;2.90;;;;;;;;;;4987488;28;20054;-54
2021/08/17 11:12:30;;;;;;;13.98;3.28;;;;;;;;;;4995616;28;20050;-56
2021/08/17 11:14:56;;;;;;;8.02;2.90;;;;;;;;;;4990591;28;20189;-55
2021/08/17 11:17:24;;;;;;;9.57;2.88;;;;;;;;;;4974064;28;20418;-56
2021/08/17 11:19:51;;;;;;;11.80;2.87;;;;;;;;;;4970271;28;20042;-55
2021/08/17 11:22:20;;;;;;;9.00;2.80;;;;;;;;;;4985753;28;20292;-55
2021/08/17 11:24:47;;;;;;;;;;;;;;;;;;4990740;28;20034;-55
2021/08/17 11:27:14;;;;;;;7.15;2.35;;;;;;;;;;4994629;28;19970;-56
2021/08/17 11:29:42;;;;;;;8.68;3.00;;;;;;;;;;4969462;28;20043;-55
2021/08/17 11:32:12;;;;;;;8.40;2.55;;;;;;;;;;4970493;28;20062;-54
2021/08/17 11:34:40;;;;;;;9.05;2.70;;;;;;;;;;4987690;28;20040;-55
2021/08/17 11:37:08;;;;;;;10.32;2.92;;;;;;;;;;4968771;28;20030;-55
2021/08/17 11:39:37;;;;;;;10.18;2.75;;;;;;;;;;4988041;28;20053;-54
2021/08/17 11:42:14;;;;;;;8.43;2.70;;;;;;;;;;4985775;28;20045;-55
2021/08/17 11:44:41;;;;;;;13.13;2.67;;;;;;;;;;4994635;28;20042;-49
2021/08/17 11:47:09;;;;;;;12.48;3.40;;;;;;;;;;4989452;28;20042;-56
2021/08/17 11:49:36;;;;;;;10.13;2.92;;;;;;;;;;4989660;28;20120;-55
2021/08/17 11:52:11;;;;;;;9.55;2.67;;;;;;;;;;4988651;28;20049;-53
2021/08/17 11:54:43;;;;;;;8.88;2.65;;;;;;;;;;4974242;28;20062;-54
2021/08/17 11:57:09;;;;;;;7.50;2.88;;;;;;;;;;4987507;28;20044;-52
2021/08/17 11:59:40;;;;;;;9.45;2.83;;;;;;;;;;4983075;28;20038;-55
2021/08/17 12:02:19;;;;;;;13.80;4.95;;;;;;;;;;4988064;28;20031;-53
2021/08/17 12:04:50;;;;;;;17.35;4.82;;;;;;;;;;4990687;28;20045;-50
2021/08/17 12:07:18;;;;;;;8.48;2.72;;;;;;;;;;5006086;28;20050;-54
2021/08/17 12:09:45;;;;;;;9.18;3.22;;;;;;;;;;4987562;28;20054;-52
2021/08/17 12:15:18;;;;;;;9.82;3.78;;;;;;;;;;4941723;28;20075;-54
2021/08/17 12:17:53;;;;;;;9.65;3.53;;;;;;;;;;4981987;28;20164;-54
2021/08/17 12:20:20;;;;;;;8.52;2.90;;;;;;;;;;4982846;28;20031;-53
2021/08/17 12:22:48;;;;;;;11.00;3.45;;;;;;;;;;4985451;28;20038;-52
2021/08/17 12:25:22;;;;;;;9.23;2.92;;;;;;;;;;4996630;28;20049;-54
2021/08/17 12:27:53;;;;;;;8.55;2.97;;;;;;;;;;5006087;28;20050;-54
2021/08/17 12:30:25;;;;;;;6.95;2.88;;;;;;;;;;4989180;28;20038;-54
2021/08/17 12:32:53;;;;;;;7.90;3.00;;;;;;;;;;4985962;28;20042;-54
2021/08/17 12:35:25;;;;;;;7.45;2.88;;;;;;;;;;4984124;28;20082;-54
2021/08/17 12:37:52;;;;;;;8.80;2.92;;;;;;;;;;4985914;28;20046;-52
2021/08/17 12:40:19;;;;;;;9.40;3.20;;;;;;;;;;4991012;28;20070;-55
2021/08/17 12:42:46;;;;;;;8.73;2.83;;;;;;;;;;5006412;28;20038;-53
2021/08/17 12:45:28;;;;;;;8.50;2.90;;;;;;;;;;4993059;28;20059;-53
2021/08/17 12:47:58;;;;;;;8.05;3.00;;;;;;;;;;4983828;28;20050;-54
2021/08/17 12:50:37;;;;;;;8.02;2.90;;;;;;;;;;4980046;28;20053;-53
2021/08/17 12:53:05;;;;;;;8.57;3.00;;;;;;;;;;4984682;28;20071;-53
2021/08/17 12:55:32;;;;;;;6.13;2.85;;;;;;;;;;4981408;28;20050;-52
2021/08/17 12:57:58;;;;;;;7.65;3.17;;;;;;;;;;4986320;28;20046;-52
2021/08/17 13:00:25;;;;;;;9.57;4.30;;;;;;;;;;4983025;28;20030;-52
2021/08/17 13:02:52;;;;;;;10.57;4.15;;;;;;;;;;4985229;28;20050;-53
2021/08/17 13:05:19;;;;;;;12.45;3.90;;;;;;;;;;4983091;28;20049;-50
2021/08/17 13:07:46;;;;;;;7.93;3.42;;;;;;;;;;5004806;28;20038;-53
2021/08/17 13:10:15;;;;;;;8.70;3.28;;;;;;;;;;5001039;28;20054;-55
2021/08/17 13:12:43;;;;;;;;;;;;;;;;;;4984934;28;20038;-54
2021/08/17 13:15:10;;;;;;;7.65;3.13;;;;;;;;;;4986036;28;19925;-52
2021/08/17 13:17:37;;;;;;;9.55;3.00;;;;;;;;;;4985962;28;20043;-50
2021/08/17 13:20:05;;;;;;;8.55;3.58;;;;;;;;;;4989441;28;20117;-54
2021/08/17 13:22:50;;;;;;;10.93;3.38;;;;;;;;;;4983956;28;20038;-54
2021/08/17 13:25:19;;;;;;;8.73;3.40;;;;;;;;;;4985577;28;20043;-52
2021/08/17 13:27:46;;;;;;;7.75;3.15;;;;;;;;;;4982440;28;20087;-51
2021/08/17 13:30:12;;;;;;;7.95;2.88;;;;;;;;;;4984969;28;20038;-54
2021/08/17 13:32:55;;;;;;;7.03;3.30;;;;;;;;;;4981943;28;20054;-55
2021/08/17 13:35:21;;;;;;;8.85;3.20;;;;;;;;;;4984431;28;20170;-54
2021/08/17 13:37:48;;;;;;;9.57;3.65;;;;;;;;;;4982490;28;20027;-53
2021/08/17 13:40:14;;;;;;;8.65;3.25;;;;;;;;;;4985268;28;20043;-53
2021/08/17 13:42:59;;;;;;;6.10;2.45;;;;;;;;;;4981652;28;20070;-54
2021/08/17 13:45:26;;;;;;;6.60;3.22;;;;;;;;;;4985399;28;20038;-54
2021/08/17 13:47:52;;;;;;;7.40;3.42;;;;;;;;;;4991280;28;20041;-50
2021/08/17 13:50:19;;;;;;;11.57;4.18;;;;;;;;;;5005688;28;20042;-54
2021/08/17 13:52:45;;;;;;;9.13;3.65;;;;;;;;;;4994135;28;20039;-53
2021/08/17 13:55:12;;;;;;;10.85;3.15;;;;;;;;;;4996347;28;20053;-54
2021/08/17 13:57:38;;;;;;;7.28;2.72;;;;;;;;;;4998210;28;20042;-54
2021/08/17 14:00:07;;;;;;;5.38;2.67;;;;;;;;;;4985817;28;20046;-54
2021/08/17 14:02:35;;;;;;;5.65;2.40;;;;;;;;;;4983077;28;20047;-53
2021/08/17 14:05:01;;;;;;;4.97;2.60;;;;;;;;;;4993688;28;20053;-51
2021/08/17 14:07:28;;;;;;;7.68;3.10;;;;;;;;;;4984739;28;20043;-55
2021/08/17 14:09:54;;;;;;;6.47;2.67;;;;;;;;;;4981520;28;20043;-54
2021/08/17 14:12:34;;;;;;;4.75;2.22;;;;;;;;;;4977522;28;20031;-54
2021/08/17 14:15:01;;;;;;;5.95;3.20;;;;;;;;;;4981402;28;20049;-53
2021/08/17 14:17:28;;;;;;;5.55;2.80;;;;;;;;;;4984377;28;20043;-53
2021/08/17 14:19:55;;;;;;;6.05;2.72;;;;;;;;;;4986606;28;20043;-55
2021/08/17 14:22:21;;;;;;;5.07;2.40;;;;;;;;;;4985194;28;20053;-54
2021/08/17 14:24:48;;;;;;;4.47;1.80;;;;;;;;;;4981715;28;20039;-55
2021/08/17 14:27:14;;;;;;;3.65;1.88;;;;;;;;;;4985668;28;20062;-55
2021/08/17 14:29:41;;;;;;;5.05;2.17;;;;;;;;;;4984072;28;20038;-54
2021/08/17 14:32:08;;;;;;;4.82;2.00;;;;;;;;;;4987411;28;20038;-55
2021/08/17 14:34:35;;;;;;;6.88;3.53;;;;;;;;;;4984262;28;20043;-52
2021/08/17 14:37:03;;;;;;;7.83;3.63;;;;;;;;;;4981592;28;20049;-55
2021/08/17 14:39:30;;;;;;;6.07;2.85;;;;;;;;;;4989503;28;20042;-56
2021/08/17 14:42:01;;;;;;;5.90;2.38;;;;;;;;;;5005916;28;20054;-53
2021/08/17 14:44:27;;;;;;;4.18;2.45;;;;;;;;;;5003212;28;20053;-55
2021/08/17 14:46:53;;;;;;;12.75;2.78;;;;;;;;;;5007412;28;20038;-56
2021/08/17 14:49:21;;;;;;;6.22;3.35;;;;;;;;;;5003927;28;20053;-55
2021/08/17 14:51:58;;;;;;;10.80;4.63;;;;;;;;;;4992513;28;20085;-55
2021/08/17 14:54:28;;;;;;;6.78;3.38;;;;;;;;;;4979247;28;20035;-54